VYBRAT REGION
Zavřít mapu

OD SOUSEDŮ: Fantazie! Bauer vítěz, Koukal druhý

Nové Město na Moravě - Lukáš Bauer vyhrál čtvrtý závod Tour de Ski v běhu na lyžích na 15 km volně v Novém Městě na Moravě a vrátil se do čela pořadí Tour.

1.1.2008
SDÍLEJ:

Lukáš Bauer se raduje v cíli stíhačky na 15 km volně v Novém Městě na Moravě.Foto: REUTERS/Petr Josek

Martin Koukal po skvělém výkonu v celém závodě a v závěrečném sprintu skončil druhý. Fazonu českých běžců potvrdil jedenáctým místem i Martin Jakš.

Dosavadní lídr Tour, Simen Östesen z Norska, se propadl na 14. místo.

Dnes běží také ženy, které od 15.30 čeká stíhačka volně na 10 km.

Výsledky - stíhačka mužů na 15 volně:
1. Bauer 36:24,9 min., 2. Koukal (oba Česko) -3,2
, 3. Piller Cottrer -3,4, 4. Checchi (oba It.) -4,6, 5. Gjerdalen (Nor.) -6,9, 6. di Centa (It.) -7,7,… 11. Jakš -36,0, 50. Kožíšek -4:07,9, 51. Magál (všichni Česko) -4:27,6.

Průběžné pořadí v Tour

1 1217350 BAUER Lukas 1977 CZE 1:24:02.1 0.00
2 1175058 KOUKAL Martin 1978 CZE 1:24:05.3 0.51
3 1139459 PILLER COTTRER Pietro 1974 ITA 1:24:05.5 0.54
4 1223849 CHECCHI Valerio 1980 ITA 1:24:06.7 0.73
5 3420023 GJERDALEN Tord Asle 1983 NOR 1:24:09.0 1.09
6 1067291 DI CENTA Giorgio 1972 ITA 1:24:09.8 1.22
7 1177580 JONNIER Emmanuel 1975 FRA 1:24:17.5 2.44
8 1092511 HETLAND Tor Arne 1974 NOR 1:24:23.1 3.33
9 1224140 SANTUS Fabio 1976 ITA 1:24:37.4 5.60
10 1221327 TEICHMANN Axel 1979 GER 1:24:37.6 5.63
11 3150069 JAKS Martin 1986 CZE 1:24:38.1 5.71
12 3200001 GOERING Franz 1984 GER 1:24:40.3 6.06
13 1101047 SOMMERFELDT Rene 1974 GER 1:24:41.1 6.19
14 3420199 OESTENSEN Simen 1984 NOR 1:24:43.9 6.63
15 3420239 NORTHUG Petter jr. 1986 NOR 1:24:57.3 8.76
16 1178162 ANGERER Tobias 1977 GER 1:25:01.7 9.46
17 1248293 SOEDERGREN Anders 1977 SWE 1:25:12.8 11.22
18 3510023 COLOGNA Dario 1986 SUI 1:25:26.2 13.34
19 1221036 FILBRICH Jens 1979 GER 1:25:27.3 13.52
20 3180054 NOUSIAINEN Ville 1983 FIN 1:25:34.4 14.64
21 3670000 CHEBOTKO Nikolay 1982 KAZ 1:25:35.2 14.77
22 1094839 HOFFMANN Christian 1974 AUT 1:25:36.8 15.03
23 1344711 JAUHOJAERVI Sami 1981 FIN 1:25:37.3 15.10
24 3480004 DEMENTIEV Eugeni 1983 RUS 1:25:40.2 15.56
25 3480013 VYLEGZHANIN Maxim 1982 RUS 1:25:53.5 17.68
26 3480016 LEGKOV Alexander 1983 RUS 1:25:54.9 17.90
27 1067485 ZORZI Cristian 1972 ITA 1:25:55.7 18.02
28 3480314 CHERNOUSOV Ilia 1986 RUS 1:25:56.9 18.21
29 1230930 SVARTEDAL Jens Arne 1976 NOR 1:26:06.9 19.80
30 1106867 BAJCICAK Martin 1976 SVK 1:26:25.8 22.80
31 1285153 ROUSSELET Alexandre 1977 FRA 1:26:40.2 25.08
32 3480007 PANKRATOV Nikolay 1982 RUS 1:26:47.8 26.29
33 3480322 PARFENOV Andrey 1987 RUS 1:26:48.9 26.47
34 3420036 ROENNING Eldar 1982 NOR 1:26:49.1 26.50
35 3480010 LIASHENKO Dmitrij 1977 RUS 1:26:49.2 26.51
36 1059822 HJELMESET Odd-Bjoern 1971 NOR 1:27:15.4 30.67
37 1106091 BATORY Ivan 1975 SVK 1:27:18.2 31.11
38 3500139 HELLNER Marcus 1985 SWE 1:27:27.1 32.53
39 1345875 GAILLARD Jean Marc 1980 FRA 1:27:28.2 32.70
40 1066224 FREDRIKSSON Mathias 1973 SWE 1:27:32.5 33.38
41 1319200 LARSSON Mats 1980 SWE 1:27:43.9 35.19
42 1347039 SEIFERT Benjamin 1982 GER 1:27:44.1 35.22
43 1181072 SCHWIENBACHER Freddy 1975 ITA 1:27:44.5 35.29
44 3670007 POLTARANIN Alexey 1987 KAZ 1:27:45.8 35.49
45 3670002 ODNODVORTSEV Maxim 1980 KAZ 1:27:48.3 35.89
46 3480280 MORILOV Nikolay 1986 RUS 1:27:50.7 36.27
47 1098137 MAE Jaak 1972 EST 1:27:51.0 36.32
48 3480533 VOLZHENTSEV Stanislav 1985 RUS 1:27:54.3 36.84
49 1277393 LEYBYUK Roman 1977 UKR 1:27:56.1 37.13
50 3150035 KOZISEK Dusan 1983 CZE 1:28:10.0 39.33
51 1175155 MAGAL Jiri 1977 CZE 1:28:29.7 42.46
52 1363141 FISCHER Remo 1981 SUI 1:28:29.8 42.47
53 3420002 DAHL John Kristian 1981 NOR 1:28:48.2 45.39
54 3500015 RICKARDSSON Daniel 1982 SWE 1:29:12.4 49.23
55 1323468 REHEMAA Aivar 1982 EST 1:29:14.5 49.57
56 1286608 PERRILLAT Christophe 1979 FRA 1:30:07.7 58.01
57 3670006 CHEREPANOV Sergey 1986 KAZ 1:30:13.9 58.99
58 1141690 BUNDI Gion Andrea 1976 SUI 1:30:28.2 61.26
59 3390002 KOKK Kaspar 1982 EST 1:30:28.3 61.28
60 1223267 PASINI Renato 1977 ITA 1:30:56.9 65.81
61 3100033 NIGHBOR David 1984 CAN 1:31:00.3 66.35
62 1358582 BRODAR Nejc 1982 SLO 1:31:20.1 69.49
63 3390050 SIMONLATSER Timo 1986 EST 1:31:32.2 71.41
64 1315805 MALAK Michal 1980 SVK 1:32:22.7 79.43
65 3050043 WURM Harald 1984 AUT 1:33:03.0 85.82
66 1291458 NARUSK Priit 1977 EST 1:33:14.2 87.60
67 3390003 KUMMEL Peeter 1982 EST 1:33:15.8 87.85
68 1291070 THOR OLSEN Jonas 1978 DAN 1:36:08.6 115.27

1.1.2008 VSTUP DO DISKUSE
SDÍLEJ:

SERVIS

Obchod - Obchod Vedoucí prodejny, provozu 18 500 Kč Vedoucí pracovních týmů v prodejnách Vedoucí prodejny smíšeného zboží. Požadované vzdělání: střední odborné (vyučen). Jednosměnný provoz, úvazek: . Mzda min. 18500 kč. Volných pracovních míst: 1. Poznámka: Požadujeme: zkušenost s prodejem potravin, zkušenost s vedením kolektivu, zdravotní průkaz, znalost práce na PC., , Nutný telefonický kontakt předem!. Pracoviště: Jednota, spotřební družstvo v kamenici nad lipou - pracoviště humpolec, Havlíčkovo náměstí, č.p. 90, 396 01 Humpolec. Informace: Jiří Eder, +420 565 420 150,606 892 572. Výroba - Výroba Pomocní dělníci ve výrobě 78 Kč Pomocní dělníci ve výrobě Strojírenský dělník obsluhy průmyslového robotu. Požadované vzdělání: základní + praktická škola. Třísměnný provoz, úvazek: . Mzda min. 78 kč. Volných pracovních míst: 1. Poznámka: Požadujeme: , - ZŠ/SOU , - Ochotu pracovat ve třísměnném pracovním režimu, - Manuální zručnost, spolehlivost, zodpovědnost, Výhodou: , - Praxe na stejné nebo obdobné pracovní pozici v automobilovém průmyslu, Náplň práce:, - Obsluha výrobních strojů (svařovací automaty, lisy), - Montáže, balení, Nabízíme:, - Nástupní hodinový tarif obsluha svařovacích automatů:86,-Kč/hod, Nástupní hodinový tarif montáže, balení, obsluha lisů:78,-Kč/hod, - Výkonnostní prémie při 100% plnění norem: + 26,-Kč/hod, - Příspěvek na dojíždění, - Příspěvek při nízké nemocnosti, - Nástup: ihned. Pracoviště: Kokinetics s.r.o., Ke Gabrielce, č.p. 788, 394 70 Kamenice nad Lipou. Informace: Alena Habová, +420 565 428 821,606 099 105. Potravinářství - Potravinářství Řezník, uzenář 20 000 Kč Řezníci a uzenáři Řezník. Požadované vzdělání: základní + praktická škola. Jednosměnný provoz, úvazek: . Mzda min. 20000 kč. Volných pracovních míst: 1. Poznámka: Praxe v oboru výhodou. Pracoviště: Zdeněk prokeš, Mikuláše z Pelhř., č.p. 404, 393 01 Pelhřimov. Informace: Zdeněk Prokeš, +420 777 827 199. Doprava a logistika - Doprava a logistika Řidič nákladního automobilu 40 000 Kč Řidiči nákladních automobilů (kromě tahačů) Řidič mezinárodní kamionové dopravy - PLATO. Požadované vzdělání: úsv. Pružná pracovní doba, úvazek: . Mzda min. 40000 kč, mzda max. 55000 kč. Volných pracovních míst: 2. Poznámka: Naše společnost IESA Logistics a.s. je rodinná dopravní firma s 20 letou tradicí, která hledá šikovné a zodpovědné řidiče pro mezinárodní přepravu. Hledáme řidiče s návěsem "PLATO" pro přepravu ČR, Německo, Rakousko., , Nabízíme:, - Stálou a dlouhodobou práci na přepravách mezi ČR a Itálií, - Moderní vozový park – tahače značky VOLVO do 5. let stáří, - Pracovní doba - turnusy dle domluvy a potřeb řidiče (2 týdny v práci a víkend doma nebo 3 týdny v práci a víkend doma), - Vlastní tahač – každý řidič má vlastní tahač, na kterém se s nikým nestřídá, - Nadstandartní výbava tahače ( kabiny XXL, klimatizace, lednice, vestavěná navigace), - Veškerá mzda je na výplatní pásce, - Dodržování nařízení. č. 561/2006 (AETR), - Příplatek za platný průkaz ADR, , Mzdové ohodnocení:, Základní mzda: 15.000 + diety od 25.000 – do 38.000,- Kč, , Požadujeme, - Spolehlivost a slušné vystupování, - Samostatnost a být ochoten táhnout za jeden provaz, - Zkušenost min. 3 roky v mezinárodní přepravě, - řidičský průkaz sk. C+E, profesní průkaz, - kartu do digitálního tachografu, - trestní bezúhonnost. Pracoviště: Iesa logistics a.s., Lnářská, č.p. 1633, 396 01 Humpolec. Informace: Monika Brázdová, +420 731 557 577.

DOPORUČENÉ ČLÁNKY

Tomáš Řepka odehrál v dresu SK Panthers Čelákovice soutěžní zápas ve čtvrté třídě.
47

Soud projednával obžalobu Řepky. Hrozí mu osm let, k soudu nepřišel

Patrizio Stronati na snímku z semifinále fotbalového poháru MOL Cup mezi FK Mladá Boleslav a SFC Opava v Mladé Boleslavi 26. dubna 2017.
15

Myslel jsem, že si ze mě střílí, říká reprezentační nováček o pozvánce

Námořní rallye vyhrál brněnský tým Hyveco

V pátek se rozhodlo o mistrovi České republiky v námořní rallye, která se konala v Chorvatsku. Celá akce trvala pět dní a až do posledního dne byla velmi vyrovnaná.

Skvělá šance pro fanoušky! Vyhrajte kopačky Krmenčíka, dres Plzně či sud piva

Deník připravil ve spolupráci s FC Viktoria Plzeň a pivovarem Gambrinus soutěž pro fotbalové fanoušky. Hrajeme o exkluzivní trofeje související s účastí Plzně v Lize mistrů. Podrobnosti soutěže čtěte ve Sportovním deníku v pondělí 22. října.

Kapitán Karviné Marek Janečka: Baník? Kvalita. Ale na zadek se z něj neposadím

Karviná – Velmi těžká mise čeká dnes od 17 hodin na fotbalisty MFK Karviná, kteří míří do moravskoslezské metropole k regionálnímu derby s Baníkem.

V hokejovém derby vyzrála budějovická Žihadla na Bruslaře

Vysočina – Hokejová druhá liga – skupin Jih a Východ měla ve středu na programu 10. kolo.

DALŠÍ ČLÁNKY Z RUBRIKY

Vážení čtenáři,

náš web Deník.cz přechází kompletně pod zabezpečený protokol, který výrazně zlepší bezpečnost při procházení našich webů.

https info

Z důvodu přechodu je nutné se znovu přihlásit k odběru upozornění na nejnovější zprávy - klikněte na tlačítko "Povolit", kterým si zajistíte odběr zpráv i do budoucna.

Děkujeme za pochopení.

POVOLIT